Time;durP1;ratioP1;P1;durP2;ratioP2;P2;SDS_P1;SDS_P2;PMS_P1;PMS_P2;Temp;Humidity;BMP_temperature;BMP_pressure;BME280_temperature;BME280_humidity;BME280_pressure;Samples;Min_cycle;Max_cycle;Signal;HPM_P1;HPM_P2
2023/12/07 00:00:52;;;;;;;3.20;2.07;;;6.90;46.00;;;;;;5033175;28;20800;-52
2023/12/07 00:03:17;;;;;;;1.97;1.50;;;6.90;46.00;;;;;;5033639;28;20186;-53
2023/12/07 00:05:43;;;;;;;1.27;1.17;;;6.90;46.00;;;;;;5033428;28;20204;-49
2023/12/07 00:08:12;;;;;;;2.60;1.50;;;6.90;46.00;;;;;;5033523;28;20235;-54
2023/12/07 00:10:37;;;;;;;1.02;0.90;;;6.90;46.00;;;;;;5033575;28;20178;-51
2023/12/07 00:13:03;;;;;;;4.70;1.47;;;6.90;46.00;;;;;;5033557;28;20204;-51
2023/12/07 00:15:29;;;;;;;2.10;1.83;;;6.90;46.10;;;;;;5033505;28;20174;-57
2023/12/07 00:17:54;;;;;;;1.80;1.70;;;6.90;46.10;;;;;;5033357;28;20173;-54
2023/12/07 00:20:20;;;;;;;1.37;1.27;;;6.90;46.00;;;;;;5033240;28;20208;-50
2023/12/07 00:22:46;;;;;;;1.63;1.33;;;6.90;46.00;;;;;;5032938;28;20201;-55
2023/12/07 00:25:12;;;;;;;0.90;0.53;;;6.90;46.00;;;;;;5033519;28;20205;-49
2023/12/07 00:27:37;;;;;;;2.53;1.20;;;6.90;46.00;;;;;;5033049;28;20223;-53
2023/12/07 00:30:03;;;;;;;2.53;1.53;;;7.00;46.00;;;;;;5033126;28;20177;-55
2023/12/07 00:32:29;;;;;;;2.28;1.35;;;7.00;45.90;;;;;;5032982;28;20182;-52
2023/12/07 00:34:55;;;;;;;1.10;1.00;;;6.90;46.00;;;;;;5033014;28;20176;-49
2023/12/07 00:37:21;;;;;;;3.13;2.83;;;6.90;46.00;;;;;;5032828;28;20201;-54
2023/12/07 00:39:47;;;;;;;2.50;1.57;;;7.00;45.90;;;;;;5032861;28;20444;-51
2023/12/07 00:42:12;;;;;;;2.63;2.43;;;7.00;45.80;;;;;;5033024;28;20410;-49
2023/12/07 00:44:41;;;;;;;3.63;2.73;;;6.90;45.80;;;;;;5032774;28;20668;-57
2023/12/07 00:47:07;;;;;;;3.38;1.63;;;6.90;45.90;;;;;;5032591;28;20170;-51
2023/12/07 00:49:33;;;;;;;2.20;2.00;;;6.90;45.90;;;;;;5032716;28;20185;-52
2023/12/07 00:51:59;;;;;;;2.70;1.90;;;7.00;45.90;;;;;;5032593;28;20409;-54
2023/12/07 00:54:24;;;;;;;1.73;0.97;;;7.00;45.90;;;;;;5032922;28;20317;-49
2023/12/07 00:56:51;;;;;;;2.60;1.50;;;7.00;46.00;;;;;;5032447;28;20268;-55
2023/12/07 00:59:16;;;;;;;1.10;0.60;;;6.90;46.00;;;;;;5032663;28;20201;-49
2023/12/07 01:01:42;;;;;;;7.30;1.30;;;6.90;46.00;;;;;;5032474;28;20235;-53
2023/12/07 01:04:08;;;;;;;2.40;1.60;;;6.90;46.00;;;;;;5032460;28;20264;-55
2023/12/07 01:06:34;;;;;;;4.87;2.57;;;6.90;46.10;;;;;;5032236;28;20582;-51
2023/12/07 01:08:59;;;;;;;2.90;2.33;;;7.00;46.00;;;;;;5032472;28;20405;-53
2023/12/07 01:11:25;;;;;;;2.37;1.60;;;7.00;46.00;;;;;;5032572;28;20220;-54
2023/12/07 01:13:51;;;;;;;2.50;1.73;;;7.00;46.10;;;;;;5031606;28;20763;-50
2023/12/07 01:16:16;;;;;;;2.47;2.07;;;7.00;46.10;;;;;;5032291;28;20170;-54
2023/12/07 01:18:42;;;;;;;2.00;1.80;;;7.00;46.10;;;;;;5032235;28;20205;-55
2023/12/07 01:21:08;;;;;;;2.00;1.60;;;7.00;46.00;;;;;;5032034;28;20268;-52
2023/12/07 01:23:34;;;;;;;8.20;1.97;;;7.10;46.00;;;;;;5032393;28;20339;-51
2023/12/07 01:26:02;;;;;;;1.77;1.67;;;7.00;45.90;;;;;;5032227;28;20219;-54
2023/12/07 01:28:28;;;;;;;1.60;1.40;;;7.10;46.00;;;;;;5032177;28;20679;-56
2023/12/07 01:30:54;;;;;;;1.55;1.30;;;7.00;46.00;;;;;;5032250;28;20185;-51
2023/12/07 01:33:20;;;;;;;2.58;2.28;;;7.00;46.00;;;;;;5031920;28;20197;-49
2023/12/07 01:35:46;;;;;;;1.73;1.63;;;7.00;46.00;;;;;;5031869;28;20178;-58
2023/12/07 01:38:12;;;;;;;1.63;1.53;;;7.00;46.00;;;;;;5032023;28;20516;-50
2023/12/07 01:40:38;;;;;;;1.40;0.85;;;7.00;46.10;;;;;;5032247;28;20468;-50
2023/12/07 01:43:03;;;;;;;2.20;1.10;;;7.00;46.10;;;;;;5030678;28;20190;-57
2023/12/07 01:45:29;;;;;;;1.53;1.43;;;7.10;46.20;;;;;;5032088;28;20172;-56
2023/12/07 01:47:56;;;;;;;3.73;1.60;;;7.10;46.20;;;;;;5031887;28;20209;-50
2023/12/07 01:50:23;;;;;;;3.03;1.55;;;7.00;46.00;;;;;;5031782;28;20182;-57
2023/12/07 01:52:57;;;;;;;1.10;1.00;;;7.10;46.10;;;;;;5031966;28;20201;-55
2023/12/07 01:55:23;;;;;;;3.13;2.15;;;7.00;46.10;;;;;;5031875;28;20174;-51
2023/12/07 01:57:49;;;;;;;0.90;0.60;;;7.00;46.20;;;;;;5031672;28;20277;-49
2023/12/07 02:00:16;;;;;;;2.50;1.73;;;7.10;46.20;;;;;;5031812;28;20284;-56
2023/12/07 02:02:43;;;;;;;2.30;1.63;;;7.10;46.20;;;;;;5031565;28;20405;-52
2023/12/07 02:05:09;;;;;;;3.00;2.40;;;7.10;46.20;;;;;;5031850;28;20170;-54
2023/12/07 02:07:34;;;;;;;1.73;1.60;;;7.10;46.10;;;;;;5031590;28;20178;-54
2023/12/07 02:10:00;;;;;;;1.73;1.43;;;7.10;46.10;;;;;;5031750;28;20415;-51
2023/12/07 02:12:29;;;;;;;7.43;1.30;;;7.10;46.10;;;;;;5031624;28;20174;-51
2023/12/07 02:14:56;;;;;;;2.50;2.35;;;7.10;46.10;;;;;;5031787;28;20404;-54
2023/12/07 02:17:34;;;;;;;1.20;1.02;;;7.10;46.00;;;;;;5031445;28;20209;-51
2023/12/07 02:20:06;;;;;;;1.55;1.45;;;7.10;46.10;;;;;;5031664;28;20201;-53
2023/12/07 02:22:46;;;;;;;4.82;2.40;;;7.20;46.10;;;;;;5031417;28;20664;-56
2023/12/07 02:25:14;;;;;;;1.30;1.20;;;7.10;46.00;;;;;;5034435;28;20177;-51
2023/12/07 02:27:41;;;;;;;1.73;1.60;;;7.20;46.00;;;;;;5035317;28;20178;-50
2023/12/07 02:30:09;;;;;;;4.03;1.92;;;7.10;46.10;;;;;;5035671;28;20202;-55
2023/12/07 02:32:45;;;;;;;3.58;3.17;;;7.10;46.20;;;;;;5035357;28;20182;-56
2023/12/07 02:35:15;;;;;;;1.33;1.23;;;7.20;46.10;;;;;;5035551;28;20224;-51
2023/12/07 02:37:49;;;;;;;1.35;1.25;;;7.20;46.10;;;;;;5035259;28;20207;-54
2023/12/07 02:40:23;;;;;;;2.17;1.90;;;7.20;46.10;;;;;;5035231;28;20198;-51
2023/12/07 02:42:49;;;;;;;1.10;0.82;;;7.20;46.00;;;;;;5035357;28;20197;-51
2023/12/07 02:45:15;;;;;;;2.35;1.75;;;7.20;46.00;;;;;;5035080;28;20170;-56
2023/12/07 02:47:43;;;;;;;3.00;1.23;;;7.10;46.20;;;;;;5035175;28;20182;-54
2023/12/07 02:50:09;;;;;;;1.58;1.48;;;7.10;46.30;;;;;;5035125;28;20416;-50
2023/12/07 02:52:35;;;;;;;2.65;2.25;;;7.10;46.30;;;;;;5034907;28;20552;-53
2023/12/07 02:55:02;;;;;;;5.18;2.25;;;7.10;46.30;;;;;;5034855;28;20174;-53
2023/12/07 02:57:29;;;;;;;3.78;2.85;;;7.10;46.30;;;;;;5034700;28;20182;-56
2023/12/07 02:59:55;;;;;;;8.13;3.20;;;7.20;46.30;;;;;;5034704;28;20215;-49
2023/12/07 03:02:21;;;;;;;6.70;3.53;;;7.10;46.40;;;;;;5034708;28;20209;-55
2023/12/07 03:04:47;;;;;;;3.30;1.87;;;7.10;46.30;;;;;;5034808;28;20213;-51
2023/12/07 03:07:13;;;;;;;6.20;2.83;;;7.20;46.30;;;;;;5034618;28;20183;-54
2023/12/07 03:09:38;;;;;;;2.75;1.77;;;7.20;46.40;;;;;;5034647;28;20869;-56
2023/12/07 03:12:05;;;;;;;2.60;2.07;;;7.20;46.30;;;;;;5034768;28;20265;-49
2023/12/07 03:14:30;;;;;;;3.33;3.03;;;7.20;46.30;;;;;;5034613;28;20684;-57
2023/12/07 03:16:56;;;;;;;1.33;1.23;;;7.20;46.30;;;;;;5034361;28;20193;-51
2023/12/07 03:19:22;;;;;;;1.00;0.90;;;7.20;46.30;;;;;;5034533;28;20208;-51
2023/12/07 03:21:47;;;;;;;1.20;1.07;;;7.20;46.30;;;;;;5034326;28;20197;-55
2023/12/07 03:24:13;;;;;;;3.47;3.17;;;7.20;46.30;;;;;;5034229;28;20541;-57
2023/12/07 03:26:39;;;;;;;1.40;1.30;;;7.20;46.20;;;;;;5034196;28;20197;-50
2023/12/07 03:29:04;;;;;;;1.47;1.37;;;7.20;46.30;;;;;;5034505;28;20192;-51
2023/12/07 03:31:30;;;;;;;2.20;2.00;;;7.20;46.30;;;;;;5034305;28;20240;-55
2023/12/07 03:33:56;;;;;;;4.23;2.70;;;7.20;46.30;;;;;;5034267;28;20244;-51
2023/12/07 03:36:23;;;;;;;1.77;1.48;;;7.20;46.30;;;;;;5033228;28;20178;-53
2023/12/07 03:38:51;;;;;;;1.73;1.63;;;7.20;46.40;;;;;;5034018;28;20212;-54
2023/12/07 03:41:17;;;;;;;2.60;2.40;;;7.30;46.40;;;;;;5034027;28;20193;-52
2023/12/07 03:43:43;;;;;;;5.80;4.00;;;7.30;46.50;;;;;;5033917;28;20202;-51
2023/12/07 03:46:08;;;;;;;4.53;2.20;;;7.30;46.50;;;;;;5033923;28;20220;-55
2023/12/07 03:48:34;;;;;;;1.47;1.33;;;7.20;46.30;;;;;;5034011;28;20584;-50
2023/12/07 03:51:01;;;;;;;1.00;0.70;;;7.20;46.30;;;;;;5033818;28;20652;-50
2023/12/07 03:53:27;;;;;;;2.95;2.75;;;7.20;46.50;;;;;;5033740;28;20193;-58
2023/12/07 03:55:53;;;;;;;2.92;1.13;;;7.20;46.60;;;;;;5033573;28;20195;-57
2023/12/07 03:58:19;;;;;;;7.53;4.70;;;7.20;46.60;;;;;;5033704;28;20268;-51
2023/12/07 04:00:45;;;;;;;5.30;4.53;;;7.20;46.50;;;;;;5033785;28;20335;-53
2023/12/07 04:03:11;;;;;;;4.15;2.35;;;7.30;46.60;;;;;;5033667;28;20194;-51
2023/12/07 04:05:37;;;;;;;3.53;2.10;;;7.20;46.50;;;;;;5033476;28;20577;-53
2023/12/07 04:08:05;;;;;;;3.15;2.13;;;7.20;46.50;;;;;;5033572;28;20454;-54
2023/12/07 04:10:31;;;;;;;3.75;1.65;;;7.20;46.60;;;;;;5033513;28;20714;-51
2023/12/07 04:12:57;;;;;;;1.90;1.70;;;7.20;46.50;;;;;;5033348;28;20197;-50
2023/12/07 04:15:22;;;;;;;4.33;1.97;;;7.20;46.50;;;;;;5033807;28;20184;-54
2023/12/07 04:17:48;;;;;;;1.87;0.97;;;7.20;46.50;;;;;;5033289;28;20774;-54
2023/12/07 04:20:15;;;;;;;2.08;1.95;;;7.30;46.60;;;;;;5033134;28;20830;-51
2023/12/07 04:22:41;;;;;;;3.33;3.10;;;7.20;46.30;;;;;;5033133;28;20533;-51
2023/12/07 04:25:07;;;;;;;2.25;2.05;;;7.20;46.50;;;;;;5033470;28;20201;-55
2023/12/07 04:27:36;;;;;;;1.92;1.55;;;7.20;46.50;;;;;;5033087;28;20224;-50
2023/12/07 04:30:03;;;;;;;1.92;1.38;;;7.20;46.50;;;;;;5033082;28;20218;-53
2023/12/07 04:32:29;;;;;;;7.35;2.67;;;7.20;46.50;;;;;;5032956;28;20182;-57
2023/12/07 04:34:55;;;;;;;2.13;1.92;;;7.20;46.50;;;;;;5032960;28;20266;-49
2023/12/07 04:37:21;;;;;;;1.83;1.73;;;7.20;46.50;;;;;;5032936;28;20262;-57
2023/12/07 04:39:47;;;;;;;2.50;2.30;;;7.20;46.50;;;;;;5033107;28;20515;-53
2023/12/07 04:42:12;;;;;;;1.50;1.40;;;7.20;46.40;;;;;;5032829;28;20928;-55
2023/12/07 04:44:38;;;;;;;3.70;2.97;;;7.20;46.40;;;;;;5032875;28;20196;-52
2023/12/07 04:47:04;;;;;;;2.40;1.93;;;7.20;46.40;;;;;;5032665;28;20244;-51
2023/12/07 04:49:30;;;;;;;1.55;1.25;;;7.20;46.50;;;;;;5032649;28;20984;-53
2023/12/07 04:51:56;;;;;;;2.73;1.03;;;7.20;46.60;;;;;;5032948;28;20182;-58
2023/12/07 04:54:21;;;;;;;5.10;1.63;;;7.20;46.50;;;;;;5032709;28;20194;-50
2023/12/07 04:56:47;;;;;;;4.43;2.10;;;7.20;46.50;;;;;;5032550;28;20675;-57
2023/12/07 04:59:13;;;;;;;2.70;2.33;;;7.20;46.50;;;;;;5032626;28;20343;-56
2023/12/07 05:01:39;;;;;;;1.80;1.70;;;7.20;46.50;;;;;;5032564;28;20811;-51
2023/12/07 05:04:05;;;;;;;2.95;2.35;;;7.20;46.50;;;;;;5032343;28;20194;-54
2023/12/07 05:06:34;;;;;;;3.75;2.25;;;7.20;46.50;;;;;;5032381;28;20576;-52
2023/12/07 05:09:00;;;;;;;3.00;2.38;;;7.20;46.50;;;;;;5032499;28;20171;-51
2023/12/07 05:11:26;;;;;;;1.33;1.23;;;7.30;46.60;;;;;;5032390;28;20174;-53
2023/12/07 05:13:52;;;;;;;1.25;0.95;;;7.30;46.50;;;;;;5032328;28;20221;-56
2023/12/07 05:16:18;;;;;;;4.17;1.90;;;7.30;46.50;;;;;;5032214;28;20268;-52
2023/12/07 05:18:44;;;;;;;3.43;2.43;;;7.30;46.50;;;;;;5032098;28;20185;-56
2023/12/07 05:21:10;;;;;;;1.97;1.80;;;7.30;46.40;;;;;;5032087;28;20197;-51
2023/12/07 05:23:35;;;;;;;2.93;2.17;;;7.30;46.40;;;;;;5032263;28;20198;-50
2023/12/07 05:26:01;;;;;;;0.90;0.57;;;7.30;47.00;;;;;;5032163;28;20782;-57
2023/12/07 05:28:27;;;;;;;1.93;1.73;;;7.30;46.40;;;;;;5032135;28;20405;-56
2023/12/07 05:30:53;;;;;;;5.40;2.08;;;7.20;46.40;;;;;;5032083;28;20178;-50
2023/12/07 05:33:22;;;;;;;1.63;1.53;;;7.30;46.50;;;;;;5031875;28;20538;-53
2023/12/07 05:35:48;;;;;;;2.65;2.03;;;7.20;46.40;;;;;;5032084;28;20220;-53
2023/12/07 05:38:13;;;;;;;3.93;1.57;;;7.20;46.50;;;;;;5032214;28;20575;-53
2023/12/07 05:40:39;;;;;;;1.60;1.50;;;7.20;46.40;;;;;;5031975;28;20457;-54
2023/12/07 05:43:05;;;;;;;2.10;1.23;;;7.20;46.50;;;;;;5031906;28;20198;-54
2023/12/07 05:45:30;;;;;;;1.93;1.73;;;7.20;46.50;;;;;;5031981;28;20678;-51
2023/12/07 05:47:56;;;;;;;5.60;1.83;;;7.30;46.50;;;;;;5031749;28;20177;-52
2023/12/07 05:50:22;;;;;;;1.55;1.45;;;7.30;46.50;;;;;;5031876;28;20535;-53
2023/12/07 05:52:48;;;;;;;1.80;1.60;;;7.30;46.40;;;;;;5031898;28;20194;-54
2023/12/07 05:55:14;;;;;;;1.30;1.10;;;7.30;46.40;;;;;;5032040;28;20177;-55
2023/12/07 05:57:40;;;;;;;3.03;2.20;;;7.30;46.30;;;;;;5031667;28;20656;-50
2023/12/07 06:00:09;;;;;;;2.33;2.13;;;7.30;46.30;;;;;;5034545;28;20539;-56
2023/12/07 06:02:35;;;;;;;2.17;1.95;;;7.30;46.30;;;;;;5035794;28;20450;-52
2023/12/07 06:05:03;;;;;;;6.85;4.72;;;7.30;46.30;;;;;;5036126;28;20170;-49
2023/12/07 06:07:29;;;;;;;5.53;2.38;;;7.30;46.30;;;;;;5035862;28;20185;-58
2023/12/07 06:09:55;;;;;;;6.40;2.00;;;7.30;46.40;;;;;;5034525;28;20178;-57
2023/12/07 06:12:21;;;;;;;1.00;0.73;;;7.30;46.40;;;;;;5035632;28;20174;-51
2023/12/07 06:14:48;;;;;;;1.63;1.40;;;7.30;46.40;;;;;;5035579;28;20440;-51
2023/12/07 06:17:14;;;;;;;2.92;2.72;;;7.40;46.30;;;;;;5035414;28;20188;-56
2023/12/07 06:19:39;;;;;;;4.53;2.73;;;7.30;46.30;;;;;;5035970;28;20252;-50
2023/12/07 06:22:05;;;;;;;0.90;0.60;;;7.40;46.30;;;;;;5035393;28;20890;-52
2023/12/07 06:24:32;;;;;;;3.30;1.90;;;7.40;46.30;;;;;;5035619;28;20197;-54
2023/12/07 06:26:59;;;;;;;2.10;1.90;;;7.40;46.40;;;;;;5035185;28;20408;-53
2023/12/07 06:29:24;;;;;;;3.17;2.15;;;7.40;46.30;;;;;;5035296;28;20188;-50
2023/12/07 06:31:50;;;;;;;3.77;2.10;;;7.40;46.20;;;;;;5035249;28;20184;-54
2023/12/07 06:34:16;;;;;;;3.00;2.80;;;7.40;46.20;;;;;;5035329;28;20194;-53
2023/12/07 06:36:43;;;;;;;6.10;2.10;;;7.40;46.20;;;;;;5035173;28;20813;-52
2023/12/07 06:39:10;;;;;;;3.45;1.75;;;7.40;46.20;;;;;;5035352;28;20208;-51
2023/12/07 06:41:35;;;;;;;11.90;2.25;;;7.40;46.30;;;;;;5035201;28;20257;-55
2023/12/07 06:44:02;;;;;;;2.50;2.10;;;7.40;46.30;;;;;;5035023;28;20343;-51
2023/12/07 06:46:27;;;;;;;1.85;1.75;;;7.40;46.30;;;;;;5035240;28;20455;-55
2023/12/07 06:48:53;;;;;;;1.30;1.13;;;7.40;46.30;;;;;;5033911;28;20691;-49
2023/12/07 06:51:19;;;;;;;4.33;2.77;;;7.40;46.40;;;;;;5035210;28;20198;-58
2023/12/07 06:53:44;;;;;;;1.80;1.17;;;7.40;46.40;;;;;;5034907;28;20243;-58
2023/12/07 06:56:10;;;;;;;5.63;1.47;;;7.40;46.30;;;;;;5034801;28;20269;-50
2023/12/07 06:58:36;;;;;;;2.10;1.80;;;7.40;46.30;;;;;;5034705;28;20178;-54
2023/12/07 07:01:02;;;;;;;2.90;2.53;;;7.40;46.30;;;;;;5034625;28;20166;-56
2023/12/07 07:03:28;;;;;;;5.70;3.50;;;7.40;46.30;;;;;;5034504;28;20190;-53
2023/12/07 07:05:55;;;;;;;2.17;1.43;;;7.40;46.40;;;;;;5034491;28;20492;-58
2023/12/07 07:08:20;;;;;;;4.85;1.65;;;7.40;46.40;;;;;;5033192;28;20378;-50
2023/12/07 07:10:49;;;;;;;86.53;5.60;;;7.50;46.40;;;;;;5033118;28;20260;-56
2023/12/07 07:13:16;;;;;;;4.60;1.98;;;7.50;46.30;;;;;;5034044;28;20194;-53
2023/12/07 07:15:45;;;;;;;2.90;2.80;;;7.50;46.30;;;;;;5034262;28;20637;-50
2023/12/07 07:18:11;;;;;;;2.10;1.48;;;7.50;46.30;;;;;;5034360;28;20645;-56
2023/12/07 07:20:37;;;;;;;4.88;2.40;;;7.50;46.30;;;;;;5034171;28;20212;-51
2023/12/07 07:23:03;;;;;;;2.20;2.00;;;7.50;46.30;;;;;;5034334;28;20198;-53
2023/12/07 07:25:29;;;;;;;3.73;1.73;;;7.50;46.40;;;;;;5034481;28;20179;-56
2023/12/07 07:27:55;;;;;;;1.97;1.57;;;7.50;46.40;;;;;;5034203;28;20706;-47
2023/12/07 07:30:23;;;;;;;4.70;1.90;;;7.50;46.40;;;;;;5034265;28;20180;-48
2023/12/07 07:32:50;;;;;;;6.47;3.25;;;7.50;46.40;;;;;;5034355;28;20321;-56
2023/12/07 07:35:16;;;;;;;6.47;2.60;;;7.60;46.40;;;;;;5034219;28;20220;-54
2023/12/07 07:37:41;;;;;;;1.23;1.07;;;7.60;46.30;;;;;;5034119;28;20173;-50
2023/12/07 07:40:11;;;;;;;2.80;2.60;;;7.60;46.40;;;;;;5034168;28;20202;-55
2023/12/07 07:42:38;;;;;;;2.15;1.95;;;7.60;46.40;;;;;;5034018;28;20660;-47
2023/12/07 07:45:05;;;;;;;4.15;3.75;;;7.70;46.50;;;;;;5034260;28;20583;-49
2023/12/07 07:47:32;;;;;;;4.03;3.58;;;7.70;46.50;;;;;;5033983;28;20178;-52
2023/12/07 07:49:58;;;;;;;2.45;1.90;;;7.70;46.30;;;;;;5034068;28;20198;-48
2023/12/07 07:52:24;;;;;;;7.90;1.38;;;7.70;46.30;;;;;;5032723;28;20189;-51
2023/12/07 07:54:50;;;;;;;3.67;2.00;;;7.70;46.30;;;;;;5063340;22;20221;-55
2023/12/07 07:57:16;;;;;;;4.03;1.57;;;7.70;46.30;;;;;;5054246;28;20429;-52
2023/12/07 07:59:42;;;;;;;3.05;0.70;;;7.70;46.30;;;;;;5054527;28;20276;-56
2023/12/07 08:02:07;;;;;;;1.30;0.93;;;7.70;46.30;;;;;;5054348;28;20315;-50
2023/12/07 08:04:33;;;;;;;7.63;2.43;;;7.70;46.30;;;;;;5054304;28;20200;-53
2023/12/07 08:06:59;;;;;;;5.70;2.30;;;7.70;46.40;;;;;;5054237;28;20181;-59
2023/12/07 08:09:25;;;;;;;4.70;3.30;;;7.70;46.40;;;;;;5054243;28;20176;-58
2023/12/07 08:11:51;;;;;;;2.75;1.10;;;7.70;46.50;;;;;;5054586;28;20419;-51
2023/12/07 08:14:17;;;;;;;5.80;2.70;;;7.70;46.50;;;;;;5053746;28;20208;-58
2023/12/07 08:16:45;;;;;;;4.07;3.53;;;7.70;46.50;;;;;;5054059;28;20181;-54
2023/12/07 08:19:11;;;;;;;3.65;1.83;;;7.70;46.60;;;;;;5053989;28;20200;-52
2023/12/07 08:21:37;;;;;;;2.30;2.10;;;7.70;46.50;;;;;;5053856;28;20235;-53
2023/12/07 08:24:03;;;;;;;3.43;1.30;;;7.70;46.50;;;;;;5054001;28;20728;-56
2023/12/07 08:26:29;;;;;;;1.60;1.50;;;7.70;46.50;;;;;;5054128;28;20215;-50
2023/12/07 08:28:56;;;;;;;1.02;0.90;;;7.60;46.60;;;;;;5053899;28;20178;-57
2023/12/07 08:31:23;;;;;;;3.97;3.03;;;7.50;46.70;;;;;;5054113;28;20238;-55
2023/12/07 08:33:52;;;;;;;1.25;1.05;;;7.50;46.80;;;;;;5053788;28;20262;-54
2023/12/07 08:36:18;;;;;;;7.45;4.05;;;7.60;46.80;;;;;;5053537;28;20181;-51
2023/12/07 08:38:44;;;;;;;1.30;1.10;;;7.50;46.80;;;;;;5053933;28;20181;-57
2023/12/07 08:41:09;;;;;;;5.00;2.70;;;7.60;46.90;;;;;;5053559;28;20180;-57
2023/12/07 08:43:35;;;;;;;3.17;2.93;;;7.60;46.90;;;;;;5053599;28;20427;-52
2023/12/07 08:46:01;;;;;;;2.53;1.57;;;7.60;46.90;;;;;;5053747;28;20205;-57
2023/12/07 08:48:27;;;;;;;2.17;2.07;;;7.70;46.90;;;;;;5054068;28;20410;-55
2023/12/07 08:50:52;;;;;;;4.80;1.17;;;7.70;46.80;;;;;;5053443;28;20418;-54
2023/12/07 08:53:18;;;;;;;2.07;1.30;;;7.70;46.70;;;;;;5053490;28;20173;-58
2023/12/07 08:55:44;;;;;;;4.00;1.90;;;7.60;46.80;;;;;;5053627;28;20193;-53
2023/12/07 08:58:10;;;;;;;2.87;2.27;;;7.70;46.80;;;;;;5053615;28;20177;-52
2023/12/07 09:00:36;;;;;;;3.23;1.27;;;7.60;46.80;;;;;;5053758;28;20506;-54
2023/12/07 09:03:02;;;;;;;2.33;1.20;;;7.60;46.90;;;;;;5053519;28;21178;-57
2023/12/07 09:05:28;;;;;;;2.30;1.90;;;7.40;47.10;;;;;;5053206;28;20436;-54
2023/12/07 09:07:54;;;;;;;4.25;2.30;;;7.40;47.10;;;;;;5053216;28;20446;-52
2023/12/07 09:10:20;;;;;;;1.30;1.13;;;7.40;47.30;;;;;;5053077;28;20209;-54
2023/12/07 09:12:46;;;;;;;3.13;2.55;;;7.40;47.60;;;;;;5053634;28;20178;-58
2023/12/07 09:15:12;;;;;;;2.37;1.47;;;7.30;47.50;;;;;;5053171;28;20608;-59
2023/12/07 09:17:41;;;;;;;4.00;2.10;;;7.30;47.60;;;;;;5053461;28;20439;-52
2023/12/07 09:20:14;;;;;;;2.65;1.85;;;7.30;47.80;;;;;;5051753;28;20996;-57
2023/12/07 09:22:49;;;;;;;2.28;1.70;;;7.40;47.80;;;;;;5053034;28;20252;-53
2023/12/07 09:25:17;;;;;;;2.35;1.67;;;7.40;47.60;;;;;;5052963;28;20200;-52
2023/12/07 09:27:43;;;;;;;3.15;2.10;;;7.40;47.60;;;;;;5052872;28;20189;-55
2023/12/07 09:30:12;;;;;;;3.07;2.33;;;7.40;47.70;;;;;;5053090;28;20181;-56
2023/12/07 09:32:40;;;;;;;6.75;5.35;;;7.40;47.70;;;;;;5053113;28;20412;-50
2023/12/07 09:35:14;;;;;;;2.28;2.08;;;7.40;47.60;;;;;;5051941;28;20209;-53
2023/12/07 09:37:40;;;;;;;1.95;1.50;;;7.50;47.60;;;;;;5052593;28;20175;-56
2023/12/07 09:40:07;;;;;;;3.78;2.85;;;7.50;47.50;;;;;;5053033;28;20738;-59
2023/12/07 09:42:33;;;;;;;3.03;1.20;;;7.50;47.60;;;;;;5053101;28;20300;-53
2023/12/07 09:44:59;;;;;;;3.80;2.40;;;7.50;47.50;;;;;;5052800;28;20243;-49
2023/12/07 09:47:28;;;;;;;4.20;3.33;;;7.50;47.50;;;;;;5052889;28;20170;-52
2023/12/07 09:49:54;;;;;;;3.10;2.80;;;7.50;47.30;;;;;;5053028;28;20193;-57
2023/12/07 09:52:22;;;;;;;1.00;0.83;;;7.60;47.30;;;;;;5052889;28;20190;-55
2023/12/07 09:54:50;;;;;;;2.72;1.63;;;7.60;47.40;;;;;;5053142;28;20508;-53
2023/12/07 09:57:16;;;;;;;3.42;3.20;;;7.70;47.40;;;;;;5051134;28;20189;-58
2023/12/07 09:59:41;;;;;;;4.23;3.00;;;7.70;47.30;;;;;;5052590;28;20227;-58
2023/12/07 10:02:07;;;;;;;1.87;1.57;;;7.70;47.20;;;;;;5052827;28;20503;-51
2023/12/07 10:04:33;;;;;;;2.45;1.90;;;7.70;47.20;;;;;;5052507;28;20423;-54
2023/12/07 10:06:59;;;;;;;3.90;2.13;;;7.80;47.10;;;;;;5052274;28;20188;-55
2023/12/07 10:09:26;;;;;;;3.77;3.23;;;7.80;47.00;;;;;;5052895;28;20443;-52
2023/12/07 10:12:05;;;;;;;6.80;2.60;;;7.80;47.00;;;;;;5052804;28;20904;-51
2023/12/07 10:14:31;;;;;;;2.58;2.30;;;7.80;46.80;;;;;;5052764;28;20220;-57
2023/12/07 10:16:57;;;;;;;5.13;1.70;;;7.80;47.00;;;;;;5052311;28;20234;-54
2023/12/07 10:19:24;;;;;;;3.07;2.47;;;7.80;47.00;;;;;;5052563;28;20209;-51
2023/12/07 10:21:51;;;;;;;4.22;2.40;;;7.80;46.90;;;;;;5052446;28;20425;-54
2023/12/07 10:24:19;;;;;;;16.05;2.97;;;7.80;46.80;;;;;;5052464;28;20697;-60
2023/12/07 10:26:48;;;;;;;5.32;2.25;;;7.80;46.80;;;;;;5052459;28;20260;-50
2023/12/07 10:29:14;;;;;;;1.85;1.30;;;7.70;46.70;;;;;;5052662;28;20185;-54
2023/12/07 10:31:40;;;;;;;4.53;1.80;;;7.70;46.80;;;;;;5051236;28;20169;-60
2023/12/07 10:34:07;;;;;;;4.83;3.13;;;7.70;46.90;;;;;;5052320;28;20685;-58
2023/12/07 10:36:33;;;;;;;1.58;1.45;;;7.70;46.80;;;;;;5051886;28;20436;-52
2023/12/07 10:38:59;;;;;;;2.03;1.80;;;7.60;46.90;;;;;;5051646;28;20677;-57
2023/12/07 10:41:25;;;;;;;2.40;1.80;;;7.60;47.00;;;;;;5051853;28;20161;-52
2023/12/07 10:44:13;;;;;;;3.05;2.25;;;7.60;47.20;;;;;;5051343;28;20949;-55
2023/12/07 10:46:42;;;;;;;2.53;1.40;;;7.70;47.20;;;;;;5054821;28;20169;-58
2023/12/07 10:49:10;;;;;;;6.22;2.42;;;7.70;47.20;;;;;;5054987;28;20184;-55
2023/12/07 10:51:55;;;;;;;2.08;1.55;;;7.70;47.10;;;;;;5054925;28;20542;-51
2023/12/07 10:54:25;;;;;;;1.67;1.13;;;7.70;47.30;;;;;;5054748;28;20208;-59
2023/12/07 10:56:51;;;;;;;2.15;2.05;;;7.70;47.20;;;;;;5054676;28;20181;-50
2023/12/07 10:59:18;;;;;;;4.25;3.85;;;7.60;47.30;;;;;;5054846;28;20201;-54
2023/12/07 11:01:44;;;;;;;3.35;2.80;;;7.70;47.30;;;;;;5054756;28;20174;-58
2023/12/07 11:04:14;;;;;;;3.70;2.20;;;7.80;47.40;;;;;;5054464;28;20267;-54
2023/12/07 11:06:42;;;;;;;11.63;4.00;;;7.80;47.30;;;;;;5054561;28;20705;-51
2023/12/07 11:09:12;;;;;;;5.75;3.92;;;7.70;47.20;;;;;;5054467;28;20234;-59
2023/12/07 11:12:05;;;;;;;3.38;2.65;;;7.80;47.30;;;;;;5054757;28;20250;-59
2023/12/07 11:14:32;;;;;;;2.30;2.17;;;7.80;47.30;;;;;;5054441;28;20201;-54
2023/12/07 11:16:58;;;;;;;3.67;3.35;;;7.80;47.40;;;;;;5054430;28;20256;-57
2023/12/07 11:19:33;;;;;;;3.47;2.53;;;7.80;47.30;;;;;;5054464;28;20284;-51
2023/12/07 11:22:04;;;;;;;4.25;2.95;;;7.70;47.30;;;;;;5054735;28;20237;-52
2023/12/07 11:24:30;;;;;;;4.00;1.95;;;7.70;47.30;;;;;;5054318;28;20284;-58
2023/12/07 11:26:56;;;;;;;4.40;2.83;;;7.70;47.30;;;;;;5054124;28;20185;-59
2023/12/07 11:29:25;;;;;;;4.32;1.92;;;7.70;47.40;;;;;;5054281;28;20185;-52
2023/12/07 11:31:51;;;;;;;6.30;3.55;;;7.70;47.40;;;;;;5054405;28;20208;-56
2023/12/07 11:34:37;;;;;;;6.15;3.40;;;7.70;47.20;;;;;;5053908;28;20206;-52
2023/12/07 11:37:03;;;;;;;8.43;4.22;;;7.80;47.10;;;;;;5053874;28;20239;-57
2023/12/07 11:39:34;;;;;;;4.20;3.85;;;7.70;47.30;;;;;;5054045;28;20196;-54
2023/12/07 11:42:08;;;;;;;5.90;3.22;;;7.70;47.20;;;;;;5053994;28;20169;-50
2023/12/07 11:44:37;;;;;;;4.40;1.95;;;7.70;47.20;;;;;;5053845;28;20686;-57
2023/12/07 11:47:03;;;;;;;3.38;3.15;;;7.80;47.20;;;;;;5053539;28;20180;-53
2023/12/07 11:49:31;;;;;;;3.33;2.50;;;7.80;47.20;;;;;;5054025;28;20268;-50
2023/12/07 11:51:57;;;;;;;4.35;3.95;;;7.80;47.20;;;;;;5053876;28;20177;-58
2023/12/07 11:54:23;;;;;;;1.53;1.40;;;7.80;47.10;;;;;;5053668;28;20228;-58
2023/12/07 11:56:56;;;;;;;3.55;2.28;;;7.80;47.10;;;;;;5052864;28;20467;-52
2023/12/07 11:59:25;;;;;;;6.68;2.58;;;7.80;47.10;;;;;;5053616;28;20204;-58
2023/12/07 12:01:51;;;;;;;2.13;1.90;;;7.80;47.10;;;;;;5053747;28;20188;-58
2023/12/07 12:04:17;;;;;;;8.80;4.55;;;7.80;47.10;;;;;;5053556;28;20606;-51
2023/12/07 12:06:44;;;;;;;5.70;5.28;;;7.80;47.60;;;;;;5053491;28;20180;-59
2023/12/07 12:09:18;;;;;;;2.63;2.40;;;7.70;46.80;;;;;;5053530;28;20186;-58
2023/12/07 12:11:46;;;;;;;8.80;1.70;;;7.60;47.10;;;;;;5053546;28;20169;-51
2023/12/07 12:14:16;;;;;;;2.25;1.58;;;7.60;47.30;;;;;;5053452;28;20294;-58
2023/12/07 12:16:44;;;;;;;1.48;1.38;;;7.50;47.40;;;;;;5053524;28;20239;-59
2023/12/07 12:19:10;;;;;;;3.15;2.28;;;7.60;47.50;;;;;;5053392;28;20670;-52
2023/12/07 12:21:38;;;;;;;5.20;4.25;;;7.60;47.40;;;;;;5053432;28;20173;-52
2023/12/07 12:24:05;;;;;;;7.60;4.22;;;7.60;47.30;;;;;;5053329;28;20201;-58
2023/12/07 12:26:33;;;;;;;5.05;2.90;;;7.60;47.40;;;;;;5053289;28;20170;-51
2023/12/07 12:29:00;;;;;;;5.20;2.10;;;7.50;47.30;;;;;;5053301;28;20188;-51
2023/12/07 12:31:26;;;;;;;5.63;2.92;;;7.50;47.50;;;;;;5053430;28;20227;-56
2023/12/07 12:33:53;;;;;;;2.83;2.63;;;7.50;47.70;;;;;;5053101;28;20201;-54
2023/12/07 12:36:23;;;;;;;3.50;2.22;;;7.60;47.60;;;;;;5053131;28;20180;-54
2023/12/07 12:38:50;;;;;;;7.93;2.80;;;7.60;47.30;;;;;;5053094;28;20166;-55
2023/12/07 12:41:20;;;;;;;8.55;2.30;;;7.60;47.60;;;;;;5053082;28;20169;-51
2023/12/07 12:43:46;;;;;;;5.47;1.73;;;7.50;47.60;;;;;;5053238;28;20197;-54
2023/12/07 12:46:13;;;;;;;1.25;1.15;;;7.40;47.70;;;;;;5053124;28;20186;-59
2023/12/07 12:48:59;;;;;;;3.05;2.75;;;7.40;47.80;;;;;;5053190;28;20251;-48
2023/12/07 12:51:32;;;;;;;11.82;2.85;;;7.40;47.90;;;;;;5052787;28;20173;-54
2023/12/07 12:53:59;;;;;;;2.85;1.77;;;7.40;47.90;;;;;;5052721;28;20274;-52
2023/12/07 12:56:27;;;;;;;4.93;2.60;;;7.40;48.10;;;;;;5052735;28;20215;-50